Time;durP1;ratioP1;P1;durP2;ratioP2;P2;SDS_P1;SDS_P2;PMS_P1;PMS_P2;Temp;Humidity;BMP_temperature;BMP_pressure;BME280_temperature;BME280_humidity;BME280_pressure;Samples;Min_cycle;Max_cycle;Signal;HPM_P1;HPM_P2
2021/06/09 00:01:24;;;;;;;40.00;23.30;;;;;;;;;;5060994;28;20023;-63
2021/06/09 00:03:49;;;;;;;39.70;23.60;;;;;;;;;;5067505;28;20016;-63
2021/06/09 00:06:15;;;;;;;36.83;21.75;;;;;;;;;;5068499;28;20095;-63
2021/06/09 00:08:42;;;;;;;42.38;23.50;;;;;;;;;;5068502;28;20039;-63
2021/06/09 00:11:08;;;;;;;42.55;24.55;;;;;;;;;;5069104;28;20528;-63
2021/06/09 00:13:34;;;;;;;45.22;25.80;;;;;;;;;;5068671;28;20020;-63
2021/06/09 00:16:03;;;;;;;44.20;25.20;;;;;;;;;;5068024;28;20036;-63
2021/06/09 00:18:29;;;;;;;45.35;24.75;;;;;;;;;;5067751;28;20412;-63
2021/06/09 00:20:55;;;;;;;43.28;24.33;;;;;;;;;;5068768;28;20031;-63
2021/06/09 00:23:26;;;;;;;47.80;25.77;;;;;;;;;;5061029;28;20017;-63
2021/06/09 00:25:54;;;;;;;47.17;26.88;;;;;;;;;;5068896;28;20067;-63
2021/06/09 00:28:20;;;;;;;47.20;25.95;;;;;;;;;;5068506;28;20516;-63
2021/06/09 00:30:46;;;;;;;48.13;26.40;;;;;;;;;;5068036;28;20090;-63
2021/06/09 00:33:12;;;;;;;51.38;28.45;;;;;;;;;;5069138;28;20098;-63
2021/06/09 00:35:38;;;;;;;53.65;28.05;;;;;;;;;;5067501;28;20151;-63
2021/06/09 00:38:05;;;;;;;53.03;27.05;;;;;;;;;;5069939;28;20025;-63
2021/06/09 00:40:32;;;;;;;51.42;27.38;;;;;;;;;;5071305;28;20507;-63
2021/06/09 00:43:02;;;;;;;50.95;28.08;;;;;;;;;;5072855;28;20431;-63
2021/06/09 00:45:28;;;;;;;52.78;29.10;;;;;;;;;;5071506;28;20422;-63
2021/06/09 00:47:54;;;;;;;51.88;27.88;;;;;;;;;;5069341;28;20038;-63
2021/06/09 00:50:20;;;;;;;52.97;27.88;;;;;;;;;;5064254;28;20365;-62
2021/06/09 00:52:46;;;;;;;53.67;26.67;;;;;;;;;;5063110;28;20226;-63
2021/06/09 00:55:13;;;;;;;51.95;28.35;;;;;;;;;;5063970;28;20055;-63
2021/06/09 00:57:39;;;;;;;50.38;27.55;;;;;;;;;;5069793;28;20106;-63
2021/06/09 01:00:10;;;;;;;49.40;26.27;;;;;;;;;;5071970;28;20025;-62
2021/06/09 01:02:36;;;;;;;;;;;;;;;;;;5069730;28;20024;-63
2021/06/09 01:05:02;;;;;;;49.75;26.50;;;;;;;;;;5070970;28;19915;-63
2021/06/09 01:07:28;;;;;;;48.45;26.40;;;;;;;;;;5055735;28;20033;-64
2021/06/09 01:09:54;;;;;;;50.72;27.02;;;;;;;;;;5071653;28;20078;-63
2021/06/09 01:12:20;;;;;;;50.33;27.85;;;;;;;;;;5062704;28;20190;-63
2021/06/09 01:14:46;;;;;;;50.65;28.63;;;;;;;;;;5069819;28;20034;-62
2021/06/09 01:17:12;;;;;;;51.42;28.27;;;;;;;;;;5063104;28;20024;-62
2021/06/09 01:19:38;;;;;;;51.33;27.83;;;;;;;;;;5067036;28;20051;-63
2021/06/09 01:22:04;;;;;;;55.53;30.25;;;;;;;;;;5072344;28;20024;-63
2021/06/09 01:24:30;;;;;;;57.80;29.77;;;;;;;;;;5071779;28;20055;-63
2021/06/09 01:26:56;;;;;;;48.00;26.55;;;;;;;;;;5071649;28;20024;-63
2021/06/09 01:29:22;;;;;;;52.38;29.13;;;;;;;;;;5071869;28;20054;-63
2021/06/09 01:31:48;;;;;;;53.38;28.17;;;;;;;;;;5066568;28;20068;-63
2021/06/09 01:34:14;;;;;;;52.10;27.60;;;;;;;;;;5068688;28;20521;-63
2021/06/09 01:36:41;;;;;;;57.72;28.30;;;;;;;;;;5065151;28;20036;-63
2021/06/09 01:39:07;;;;;;;51.75;27.73;;;;;;;;;;5068904;28;20099;-63
2021/06/09 01:41:33;;;;;;;54.65;29.25;;;;;;;;;;5069938;28;20073;-62
2021/06/09 01:43:59;;;;;;;55.20;28.65;;;;;;;;;;5064518;28;20043;-63
2021/06/09 01:46:25;;;;;;;56.67;26.95;;;;;;;;;;5071491;28;20048;-63
2021/06/09 01:48:51;;;;;;;59.38;28.83;;;;;;;;;;5066465;28;20375;-63
2021/06/09 01:51:18;;;;;;;56.00;27.77;;;;;;;;;;5062377;28;20032;-63
2021/06/09 01:53:44;;;;;;;59.45;29.73;;;;;;;;;;5070667;28;20025;-63
2021/06/09 01:56:10;;;;;;;57.67;27.98;;;;;;;;;;5069061;28;20109;-63
2021/06/09 01:58:36;;;;;;;56.03;27.90;;;;;;;;;;5070845;28;20028;-62
2021/06/09 02:01:02;;;;;;;56.85;27.67;;;;;;;;;;5068240;28;20024;-63
2021/06/09 02:03:28;;;;;;;53.78;28.40;;;;;;;;;;5070451;28;20028;-63
2021/06/09 02:05:54;;;;;;;68.28;32.15;;;;;;;;;;5069361;28;20026;-63
2021/06/09 02:08:20;;;;;;;62.03;32.03;;;;;;;;;;5069810;28;20102;-63
2021/06/09 02:10:47;;;;;;;65.30;33.50;;;;;;;;;;5070177;28;20670;-63
2021/06/09 02:13:17;;;;;;;68.75;33.25;;;;;;;;;;5068597;28;20025;-63
2021/06/09 02:15:44;;;;;;;68.35;32.53;;;;;;;;;;5065007;28;20380;-63
2021/06/09 02:20:39;;;;;;;71.60;33.60;;;;;;;;;;5069445;28;20036;-63
2021/06/09 02:23:07;;;;;;;77.65;36.83;;;;;;;;;;5071069;28;20426;-62
2021/06/09 02:25:34;;;;;;;77.75;37.00;;;;;;;;;;5068398;28;20099;-62
2021/06/09 02:28:00;;;;;;;77.35;35.83;;;;;;;;;;5069935;28;20021;-63
2021/06/09 02:30:26;;;;;;;74.97;35.70;;;;;;;;;;5067640;28;20087;-62
2021/06/09 02:32:52;;;;;;;77.70;37.17;;;;;;;;;;5069015;28;20020;-63
2021/06/09 02:35:19;;;;;;;72.07;34.80;;;;;;;;;;5066620;28;20024;-62
2021/06/09 02:37:49;;;;;;;70.07;35.03;;;;;;;;;;5068348;28;20035;-62
2021/06/09 02:40:15;;;;;;;75.13;35.20;;;;;;;;;;5065540;28;20029;-63
2021/06/09 02:42:41;;;;;;;67.78;33.42;;;;;;;;;;5067316;28;20020;-63
2021/06/09 02:45:09;;;;;;;67.07;32.80;;;;;;;;;;5069149;28;20020;-62
2021/06/09 02:47:36;;;;;;;66.80;32.85;;;;;;;;;;5066253;28;20114;-62
2021/06/09 02:50:04;;;;;;;63.22;33.00;;;;;;;;;;5064900;28;20426;-63
2021/06/09 02:52:43;;;;;;;62.75;31.50;;;;;;;;;;5068175;28;20024;-63
2021/06/09 02:55:12;;;;;;;67.60;32.55;;;;;;;;;;5059863;28;20053;-63
2021/06/09 02:57:44;;;;;;;69.70;33.25;;;;;;;;;;5066976;28;20063;-63
2021/06/09 03:00:12;;;;;;;70.00;33.33;;;;;;;;;;5067454;28;20051;-63
2021/06/09 03:02:52;;;;;;;65.30;32.38;;;;;;;;;;5058558;28;20078;-63
2021/06/09 03:05:31;;;;;;;66.57;32.78;;;;;;;;;;5056510;28;20285;-62
2021/06/09 03:08:00;;;;;;;69.68;34.60;;;;;;;;;;5066478;28;20017;-62
2021/06/09 03:10:34;;;;;;;67.35;32.97;;;;;;;;;;5066555;28;20480;-63
2021/06/09 03:13:06;;;;;;;68.85;33.60;;;;;;;;;;5068838;28;20035;-63
2021/06/09 03:15:40;;;;;;;60.33;28.88;;;;;;;;;;5065378;28;20009;-62
2021/06/09 03:18:15;;;;;;;56.40;28.58;;;;;;;;;;5067908;28;20033;-62
2021/06/09 03:20:44;;;;;;;68.60;31.50;;;;;;;;;;5063363;28;20104;-62
2021/06/09 03:23:22;;;;;;;63.42;32.85;;;;;;;;;;5061075;28;20029;-62
2021/06/09 03:25:52;;;;;;;62.47;31.02;;;;;;;;;;5063208;28;20029;-62
2021/06/09 03:28:18;;;;;;;66.35;32.35;;;;;;;;;;5064780;28;20031;-62
2021/06/09 03:30:47;;;;;;;61.83;30.67;;;;;;;;;;5068545;28;20112;-62
2021/06/09 03:33:14;;;;;;;74.47;35.28;;;;;;;;;;5054669;28;20364;-63
2021/06/09 03:35:46;;;;;;;72.28;34.78;;;;;;;;;;5062544;28;20246;-62
2021/06/09 03:38:21;;;;;;;74.43;34.97;;;;;;;;;;5061365;28;20430;-63
2021/06/09 03:40:49;;;;;;;69.25;34.70;;;;;;;;;;5056525;28;20070;-63
2021/06/09 03:43:16;;;;;;;68.20;35.25;;;;;;;;;;5068996;28;20031;-63
2021/06/09 03:45:43;;;;;;;75.65;37.42;;;;;;;;;;5069004;28;20048;-62
2021/06/09 03:48:10;;;;;;;75.38;35.40;;;;;;;;;;5067403;28;20499;-63
2021/06/09 03:50:38;;;;;;;77.95;37.85;;;;;;;;;;5054474;28;20052;-63
2021/06/09 03:53:06;;;;;;;75.97;36.67;;;;;;;;;;5067595;28;20101;-63
2021/06/09 03:55:39;;;;;;;73.30;36.00;;;;;;;;;;5060054;28;20052;-62
2021/06/09 03:58:08;;;;;;;76.25;37.22;;;;;;;;;;5068394;28;20032;-63
2021/06/09 04:00:35;;;;;;;70.20;34.92;;;;;;;;;;5064100;28;20357;-62
2021/06/09 04:03:02;;;;;;;67.32;33.83;;;;;;;;;;5058696;28;20058;-63
2021/06/09 04:05:29;;;;;;;64.78;31.98;;;;;;;;;;5064442;28;20542;-62
2021/06/09 04:07:58;;;;;;;63.55;31.17;;;;;;;;;;5065292;28;20468;-63
2021/06/09 04:10:24;;;;;;;63.42;32.85;;;;;;;;;;5060989;28;20254;-63
2021/06/09 04:12:50;;;;;;;63.95;32.30;;;;;;;;;;5066913;28;20369;-63
2021/06/09 04:15:17;;;;;;;62.47;32.15;;;;;;;;;;5072847;28;20538;-63
2021/06/09 04:17:45;;;;;;;64.07;32.60;;;;;;;;;;5068430;28;20068;-63
2021/06/09 04:20:12;;;;;;;62.38;32.45;;;;;;;;;;5063507;28;20027;-63
2021/06/09 04:22:38;;;;;;;62.42;32.22;;;;;;;;;;5058826;28;20021;-63
2021/06/09 04:25:07;;;;;;;61.05;32.55;;;;;;;;;;5069531;28;20056;-63
2021/06/09 04:27:35;;;;;;;62.28;31.42;;;;;;;;;;5065558;28;20404;-62
2021/06/09 04:30:02;;;;;;;61.50;30.63;;;;;;;;;;5069062;28;20020;-63
2021/06/09 04:32:46;;;;;;;60.42;31.40;;;;;;;;;;5060453;28;20511;-63
2021/06/09 04:35:12;;;;;;;62.35;33.28;;;;;;;;;;5063255;28;20036;-63
2021/06/09 04:37:38;;;;;;;65.28;32.30;;;;;;;;;;5070552;28;20387;-63
2021/06/09 04:40:05;;;;;;;64.55;34.53;;;;;;;;;;5067617;28;20100;-63
2021/06/09 04:42:31;;;;;;;58.92;31.38;;;;;;;;;;5065135;28;20060;-63
2021/06/09 04:44:57;;;;;;;65.20;32.20;;;;;;;;;;5069181;28;20027;-63
2021/06/09 04:47:28;;;;;;;61.65;32.20;;;;;;;;;;5070821;28;20082;-63
2021/06/09 04:49:54;;;;;;;65.78;33.55;;;;;;;;;;5059465;28;20029;-62
2021/06/09 04:52:21;;;;;;;62.42;31.92;;;;;;;;;;5064362;28;20032;-63
2021/06/09 04:54:47;;;;;;;65.97;33.25;;;;;;;;;;5065890;28;20036;-63
2021/06/09 04:57:13;;;;;;;69.88;35.75;;;;;;;;;;5069235;28;20037;-63
2021/06/09 04:59:39;;;;;;;69.53;35.35;;;;;;;;;;5060184;28;20025;-62
2021/06/09 05:02:05;;;;;;;67.22;35.35;;;;;;;;;;5065762;28;20044;-63
2021/06/09 05:04:31;;;;;;;75.60;36.15;;;;;;;;;;5059751;28;20024;-63
2021/06/09 05:06:57;;;;;;;67.05;35.05;;;;;;;;;;5065200;28;20024;-65
2021/06/09 05:09:23;;;;;;;65.65;33.53;;;;;;;;;;5070639;28;20016;-63
2021/06/09 05:12:21;;;;;;;59.85;31.42;;;;;;;;;;5066963;28;20107;-62
2021/06/09 05:15:00;;;;;;;59.40;31.55;;;;;;;;;;5031657;28;20120;-63
2021/06/09 05:17:31;;;;;;;56.83;30.83;;;;;;;;;;5063191;28;20132;-63
2021/06/09 05:19:58;;;;;;;54.85;31.23;;;;;;;;;;5067940;28;20346;-63
2021/06/09 05:22:27;;;;;;;60.50;31.88;;;;;;;;;;5063224;28;20021;-63
2021/06/09 05:24:55;;;;;;;56.30;32.63;;;;;;;;;;5060097;28;20036;-63
2021/06/09 05:27:22;;;;;;;54.03;31.15;;;;;;;;;;5068663;28;20032;-63
2021/06/09 05:29:48;;;;;;;57.63;31.15;;;;;;;;;;5058623;28;20415;-63
2021/06/09 05:32:14;;;;;;;56.15;30.15;;;;;;;;;;5071249;28;20047;-62
2021/06/09 05:34:42;;;;;;;52.78;28.17;;;;;;;;;;5066786;28;20025;-62
2021/06/09 05:37:11;;;;;;;49.65;28.50;;;;;;;;;;5070827;28;20105;-62
2021/06/09 05:39:38;;;;;;;54.63;29.40;;;;;;;;;;5065745;28;20021;-62
2021/06/09 05:42:11;;;;;;;53.00;29.63;;;;;;;;;;5069246;28;20021;-62
2021/06/09 05:44:37;;;;;;;49.88;28.73;;;;;;;;;;5065126;28;20039;-62
2021/06/09 05:47:04;;;;;;;48.42;28.00;;;;;;;;;;5068050;28;20039;-63
2021/06/09 05:49:30;;;;;;;52.55;28.58;;;;;;;;;;5066325;28;20426;-63
2021/06/09 05:51:57;;;;;;;46.40;27.27;;;;;;;;;;5068123;28;20033;-63
2021/06/09 05:54:23;;;;;;;49.58;27.45;;;;;;;;;;5063213;28;20108;-63
2021/06/09 05:56:50;;;;;;;47.72;27.63;;;;;;;;;;5059994;28;20494;-63
2021/06/09 05:59:16;;;;;;;45.65;26.00;;;;;;;;;;5068823;28;20017;-63
2021/06/09 06:01:43;;;;;;;46.42;26.50;;;;;;;;;;5066154;28;20024;-63
2021/06/09 06:04:09;;;;;;;46.13;25.58;;;;;;;;;;5059864;28;20025;-63
2021/06/09 06:06:36;;;;;;;48.55;26.60;;;;;;;;;;5053121;28;20352;-63
2021/06/09 06:09:04;;;;;;;45.03;26.13;;;;;;;;;;5057287;28;20032;-63
2021/06/09 06:11:30;;;;;;;44.95;25.92;;;;;;;;;;5067326;28;20021;-63
2021/06/09 06:13:56;;;;;;;44.95;26.00;;;;;;;;;;5063028;28;20016;-63
2021/06/09 06:16:23;;;;;;;48.88;26.02;;;;;;;;;;5062832;28;20024;-62
2021/06/09 06:18:50;;;;;;;46.25;25.17;;;;;;;;;;5058883;28;20499;-63
2021/06/09 06:21:17;;;;;;;41.85;24.60;;;;;;;;;;5063208;28;20099;-63
2021/06/09 06:23:43;;;;;;;44.53;24.55;;;;;;;;;;5058820;28;20431;-63
2021/06/09 06:26:10;;;;;;;40.22;23.52;;;;;;;;;;5061904;28;20024;-63
2021/06/09 06:28:39;;;;;;;43.92;24.65;;;;;;;;;;5070785;28;20037;-63
2021/06/09 06:31:10;;;;;;;41.15;23.83;;;;;;;;;;5070499;28;20023;-63
2021/06/09 06:33:37;;;;;;;41.08;21.55;;;;;;;;;;5063245;28;20035;-63
2021/06/09 06:36:03;;;;;;;39.33;22.63;;;;;;;;;;5068348;28;20068;-63
2021/06/09 06:38:29;;;;;;;39.83;22.88;;;;;;;;;;5070036;28;20037;-63
2021/06/09 06:40:56;;;;;;;43.63;22.42;;;;;;;;;;5067308;28;20020;-63
2021/06/09 06:43:22;;;;;;;45.58;23.30;;;;;;;;;;5065485;28;20024;-63
2021/06/09 06:45:48;;;;;;;39.80;22.23;;;;;;;;;;5062973;28;20464;-63
2021/06/09 06:48:15;;;;;;;39.20;23.33;;;;;;;;;;5066709;28;20533;-63
2021/06/09 06:50:43;;;;;;;40.67;23.50;;;;;;;;;;5064605;28;20476;-62
2021/06/09 06:53:09;;;;;;;37.70;18.60;;;;;;;;;;5070269;28;20074;-63
2021/06/09 06:55:36;;;;;;;39.88;21.77;;;;;;;;;;5065914;28;20096;-62
2021/06/09 06:58:02;;;;;;;40.08;23.63;;;;;;;;;;5060945;28;20396;-63
2021/06/09 07:00:28;;;;;;;39.08;21.88;;;;;;;;;;5065952;28;20041;-63
2021/06/09 07:02:56;;;;;;;33.15;15.90;;;;;;;;;;5064138;28;20073;-63
2021/06/09 07:05:24;;;;;;;35.95;21.55;;;;;;;;;;5059579;28;20083;-63
2021/06/09 07:07:51;;;;;;;41.45;21.83;;;;;;;;;;5065437;28;20031;-63
2021/06/09 07:10:18;;;;;;;38.60;21.77;;;;;;;;;;5061448;28;20468;-63
2021/06/09 07:12:44;;;;;;;39.00;21.83;;;;;;;;;;5065406;28;20021;-63
2021/06/09 07:15:12;;;;;;;41.10;22.15;;;;;;;;;;5069075;28;20038;-63
2021/06/09 07:17:40;;;;;;;39.28;23.05;;;;;;;;;;5064909;28;20120;-62
2021/06/09 07:20:08;;;;;;;41.88;22.63;;;;;;;;;;5066852;28;20091;-62
2021/06/09 07:22:34;;;;;;;40.08;21.38;;;;;;;;;;5060750;28;20029;-62
2021/06/09 07:25:01;;;;;;;36.47;21.90;;;;;;;;;;5057388;28;20035;-63
2021/06/09 07:27:30;;;;;;;39.28;22.52;;;;;;;;;;5069614;28;20024;-63
2021/06/09 07:29:57;;;;;;;37.30;21.30;;;;;;;;;;5065663;28;20034;-62
2021/06/09 07:32:23;;;;;;;34.38;18.55;;;;;;;;;;5062011;28;20267;-63
2021/06/09 07:34:49;;;;;;;32.97;21.02;;;;;;;;;;5064477;28;20641;-63
2021/06/09 07:37:18;;;;;;;35.03;21.08;;;;;;;;;;5064943;28;20036;-63
2021/06/09 07:39:46;;;;;;;34.90;21.42;;;;;;;;;;5059186;28;20108;-62
2021/06/09 07:42:14;;;;;;;37.22;21.35;;;;;;;;;;5066771;28;20051;-63
2021/06/09 07:44:46;;;;;;;36.78;21.17;;;;;;;;;;5068818;28;20123;-63
2021/06/09 07:47:13;;;;;;;36.47;21.98;;;;;;;;;;5057523;28;20040;-63
2021/06/09 07:49:39;;;;;;;35.47;20.60;;;;;;;;;;5064313;28;20020;-63
2021/06/09 07:52:06;;;;;;;35.05;22.33;;;;;;;;;;5066301;28;20021;-63
2021/06/09 07:54:34;;;;;;;31.63;20.45;;;;;;;;;;5068594;28;20535;-63
2021/06/09 07:57:01;;;;;;;34.55;20.65;;;;;;;;;;5055943;28;20171;-63
2021/06/09 07:59:27;;;;;;;32.50;20.85;;;;;;;;;;5068476;28;20503;-63
2021/06/09 08:01:53;;;;;;;33.20;18.88;;;;;;;;;;5056967;28;20476;-63
2021/06/09 08:04:21;;;;;;;34.22;20.20;;;;;;;;;;5064061;28;20017;-63
2021/06/09 08:06:47;;;;;;;33.97;19.50;;;;;;;;;;5051397;28;20538;-64
2021/06/09 08:09:15;;;;;;;32.92;19.90;;;;;;;;;;5064558;28;20514;-64
2021/06/09 08:11:42;;;;;;;30.17;17.15;;;;;;;;;;5068191;28;20105;-64
2021/06/09 08:14:08;;;;;;;33.78;20.10;;;;;;;;;;5058168;28;20021;-69
2021/06/09 08:16:41;;;;;;;29.50;18.05;;;;;;;;;;5063990;28;20036;-79
2021/06/09 08:19:07;;;;;;;29.95;19.30;;;;;;;;;;5066828;28;20017;-72
2021/06/09 08:21:33;;;;;;;27.52;16.25;;;;;;;;;;5068676;28;20032;-72
2021/06/09 08:23:59;;;;;;;29.08;18.02;;;;;;;;;;5064187;28;20842;-68
2021/06/09 08:26:28;;;;;;;26.58;17.85;;;;;;;;;;5068212;28;20082;-68
2021/06/09 08:28:55;;;;;;;29.58;19.08;;;;;;;;;;5067733;28;20056;-68
2021/06/09 08:31:23;;;;;;;31.63;17.67;;;;;;;;;;5066247;28;20036;-63
2021/06/09 08:33:50;;;;;;;27.17;18.10;;;;;;;;;;5055808;28;20023;-63
2021/06/09 08:36:17;;;;;;;37.63;18.35;;;;;;;;;;5061387;28;20031;-64
2021/06/09 08:38:43;;;;;;;26.42;15.38;;;;;;;;;;5063431;28;20111;-63
2021/06/09 08:41:10;;;;;;;28.20;17.77;;;;;;;;;;5062131;28;20048;-63
2021/06/09 08:43:37;;;;;;;26.42;14.65;;;;;;;;;;5067174;28;20059;-63
2021/06/09 08:46:04;;;;;;;26.35;15.90;;;;;;;;;;5066984;28;20027;-63
2021/06/09 08:48:31;;;;;;;28.90;18.75;;;;;;;;;;5062008;28;20032;-63
2021/06/09 08:50:57;;;;;;;28.27;17.85;;;;;;;;;;5057387;28;20012;-63
2021/06/09 08:53:23;;;;;;;28.85;18.40;;;;;;;;;;5060618;28;20059;-63
2021/06/09 08:55:50;;;;;;;26.50;17.15;;;;;;;;;;5056124;28;20036;-63
2021/06/09 08:58:16;;;;;;;28.70;17.98;;;;;;;;;;5067790;28;20036;-63
2021/06/09 09:00:43;;;;;;;30.75;19.88;;;;;;;;;;5061333;28;20028;-63
2021/06/09 09:03:09;;;;;;;27.58;18.08;;;;;;;;;;5072188;28;20036;-63
2021/06/09 09:05:36;;;;;;;29.02;17.85;;;;;;;;;;5069676;28;20044;-63
2021/06/09 09:08:03;;;;;;;25.60;17.38;;;;;;;;;;5071974;28;20396;-64
2021/06/09 09:10:29;;;;;;;24.15;16.25;;;;;;;;;;5071893;28;20036;-63
2021/06/09 09:12:55;;;;;;;22.77;15.02;;;;;;;;;;5070999;28;20020;-64
2021/06/09 09:15:21;;;;;;;29.23;18.67;;;;;;;;;;5072133;28;20021;-63
2021/06/09 09:17:53;;;;;;;26.65;18.10;;;;;;;;;;5068423;28;20064;-63
2021/06/09 09:20:24;;;;;;;25.25;16.58;;;;;;;;;;5065261;28;20028;-63
2021/06/09 09:22:52;;;;;;;22.55;15.13;;;;;;;;;;5056701;28;20051;-63
2021/06/09 09:25:19;;;;;;;32.72;16.77;;;;;;;;;;5068388;28;20029;-63
2021/06/09 09:27:52;;;;;;;25.33;16.00;;;;;;;;;;5064953;28;20400;-63
2021/06/09 09:30:18;;;;;;;25.48;17.23;;;;;;;;;;5065704;28;20827;-62
2021/06/09 09:33:03;;;;;;;27.23;17.83;;;;;;;;;;5064708;28;20353;-63
2021/06/09 09:35:31;;;;;;;26.25;17.35;;;;;;;;;;5060670;28;20027;-63
2021/06/09 09:38:17;;;;;;;23.45;14.88;;;;;;;;;;5065004;28;20036;-63
2021/06/09 09:41:02;;;;;;;27.05;17.33;;;;;;;;;;5059287;28;20024;-62
2021/06/09 09:43:47;;;;;;;23.10;15.82;;;;;;;;;;5061357;28;20020;-63
2021/06/09 09:46:18;;;;;;;27.65;16.90;;;;;;;;;;5069825;28;20043;-63
2021/06/09 09:49:00;;;;;;;26.08;17.80;;;;;;;;;;5064816;28;20036;-63
2021/06/09 09:51:26;;;;;;;24.27;17.25;;;;;;;;;;5060470;28;20021;-63
2021/06/09 09:54:00;;;;;;;23.60;15.70;;;;;;;;;;5066447;28;20487;-63
2021/06/09 09:56:30;;;;;;;21.42;15.75;;;;;;;;;;5063211;28;20059;-63
2021/06/09 09:58:58;;;;;;;31.60;21.55;;;;;;;;;;5069426;28;20024;-63
2021/06/09 10:01:25;;;;;;;28.95;19.65;;;;;;;;;;5055558;28;20048;-63
2021/06/09 10:03:55;;;;;;;27.15;19.65;;;;;;;;;;5064415;28;20056;-62
2021/06/09 10:06:28;;;;;;;25.27;18.98;;;;;;;;;;5064722;28;20040;-63
2021/06/09 10:08:56;;;;;;;27.65;18.52;;;;;;;;;;5056956;28;20057;-63
2021/06/09 10:11:23;;;;;;;28.15;18.73;;;;;;;;;;5061764;28;20407;-63
2021/06/09 10:13:49;;;;;;;26.63;19.20;;;;;;;;;;5062369;28;20043;-62
2021/06/09 10:16:26;;;;;;;28.73;19.05;;;;;;;;;;5069416;28;20028;-63
2021/06/09 10:19:03;;;;;;;24.77;18.27;;;;;;;;;;5069978;28;20024;-63
2021/06/09 10:21:29;;;;;;;25.40;19.27;;;;;;;;;;5069411;28;20476;-62
2021/06/09 10:24:00;;;;;;;28.05;18.75;;;;;;;;;;5070298;28;20106;-62
2021/06/09 10:26:27;;;;;;;27.35;19.50;;;;;;;;;;5068274;28;20036;-62
2021/06/09 10:29:00;;;;;;;23.83;17.17;;;;;;;;;;5070537;28;20150;-63
2021/06/09 10:31:30;;;;;;;23.15;15.75;;;;;;;;;;5057704;28;20039;-63
2021/06/09 10:33:56;;;;;;;20.08;13.73;;;;;;;;;;5067096;28;20067;-62
2021/06/09 10:36:23;;;;;;;18.52;14.05;;;;;;;;;;5064755;28;20033;-63
2021/06/09 10:38:49;;;;;;;21.25;12.10;;;;;;;;;;5067784;28;20373;-63
2021/06/09 10:41:15;;;;;;;19.27;14.48;;;;;;;;;;5063753;28;20475;-62
2021/06/09 10:43:42;;;;;;;19.08;13.43;;;;;;;;;;5062405;28;20039;-62
2021/06/09 10:46:09;;;;;;;21.67;13.32;;;;;;;;;;5068319;28;20096;-63
2021/06/09 10:48:35;;;;;;;15.48;11.00;;;;;;;;;;5059589;28;20405;-63
2021/06/09 10:51:01;;;;;;;16.40;11.48;;;;;;;;;;5069632;28;20027;-63
2021/06/09 10:53:27;;;;;;;16.60;12.43;;;;;;;;;;5067998;28;20032;-62
2021/06/09 10:55:53;;;;;;;18.25;13.40;;;;;;;;;;5066380;28;20041;-63
2021/06/09 10:58:24;;;;;;;18.25;12.85;;;;;;;;;;5070139;28;20036;-63
2021/06/09 11:00:50;;;;;;;18.25;12.45;;;;;;;;;;5069437;28;20031;-63
2021/06/09 11:03:16;;;;;;;19.30;12.70;;;;;;;;;;5070598;28;20418;-63
2021/06/09 11:05:42;;;;;;;16.60;12.02;;;;;;;;;;5069264;28;20024;-62
2021/06/09 11:08:08;;;;;;;18.67;11.40;;;;;;;;;;5070022;28;20074;-62
2021/06/09 11:10:42;;;;;;;18.10;10.57;;;;;;;;;;5070190;28;20074;-62
2021/06/09 11:13:09;;;;;;;14.65;10.65;;;;;;;;;;5067411;28;20023;-62
2021/06/09 11:15:36;;;;;;;18.05;11.27;;;;;;;;;;5070250;28;20039;-62
2021/06/09 11:18:23;;;;;;;17.25;12.07;;;;;;;;;;5069279;28;20032;-62
2021/06/09 11:20:50;;;;;;;15.52;10.88;;;;;;;;;;5069616;28;20419;-62
2021/06/09 11:23:38;;;;;;;16.80;11.88;;;;;;;;;;5067937;28;20020;-63
2021/06/09 11:26:05;;;;;;;17.90;12.52;;;;;;;;;;5068729;28;20120;-62
2021/06/09 11:28:34;;;;;;;15.07;9.52;;;;;;;;;;5069809;28;20056;-62
2021/06/09 11:31:30;;;;;;;11.18;6.90;;;;;;;;;;5069019;28;20432;-63
2021/06/09 11:33:56;;;;;;;12.77;8.52;;;;;;;;;;5052282;28;20026;-63
2021/06/09 11:36:22;;;;;;;13.75;8.90;;;;;;;;;;5068546;28;20051;-62
2021/06/09 11:39:10;;;;;;;13.80;9.07;;;;;;;;;;5069127;28;20479;-63
2021/06/09 11:41:37;;;;;;;12.50;9.02;;;;;;;;;;5066891;28;20568;-63
2021/06/09 11:44:04;;;;;;;14.68;9.13;;;;;;;;;;5059714;28;20372;-63
2021/06/09 11:46:31;;;;;;;12.50;9.35;;;;;;;;;;5060505;28;20538;-63
2021/06/09 11:49:02;;;;;;;15.18;8.82;;;;;;;;;;5063327;28;20071;-63
2021/06/09 11:51:32;;;;;;;11.68;8.32;;;;;;;;;;5058107;28;20040;-63
2021/06/09 11:53:58;;;;;;;;;;;;;;;;;;5065380;28;20127;-62
2021/06/09 11:56:30;;;;;;;16.70;9.43;;;;;;;;;;5057470;28;20405;-63
2021/06/09 11:58:57;;;;;;;15.68;9.20;;;;;;;;;;5061001;28;20036;-63
2021/06/09 12:01:24;;;;;;;13.07;9.25;;;;;;;;;;5054003;28;20017;-63
2021/06/09 12:04:09;;;;;;;14.13;9.48;;;;;;;;;;5063043;28;20424;-63
2021/06/09 12:06:56;;;;;;;16.50;10.50;;;;;;;;;;5058281;28;20036;-62
2021/06/09 12:09:22;;;;;;;14.88;10.48;;;;;;;;;;5066468;28;20364;-63
2021/06/09 12:11:50;;;;;;;16.55;10.52;;;;;;;;;;5056956;28;20430;-62
2021/06/09 12:14:17;;;;;;;16.48;10.63;;;;;;;;;;5054682;28;20074;-63
2021/06/09 12:16:43;;;;;;;14.25;8.80;;;;;;;;;;5063324;28;20033;-62
2021/06/09 12:19:21;;;;;;;14.25;8.95;;;;;;;;;;5060698;28;20032;-63
2021/06/09 12:21:47;;;;;;;14.82;8.43;;;;;;;;;;5052550;28;20077;-63
2021/06/09 12:24:15;;;;;;;17.02;9.98;;;;;;;;;;5051591;28;20017;-63
2021/06/09 12:26:48;;;;;;;13.18;9.75;;;;;;;;;;5061154;28;20036;-62
2021/06/09 12:29:14;;;;;;;15.88;10.18;;;;;;;;;;5066612;28;20025;-62
2021/06/09 12:31:40;;;;;;;15.50;9.85;;;;;;;;;;5059003;28;20032;-62
2021/06/09 12:34:06;;;;;;;13.07;9.68;;;;;;;;;;5070632;28;20021;-63
2021/06/09 12:36:32;;;;;;;13.55;9.13;;;;;;;;;;5060310;28;20111;-62
2021/06/09 12:38:58;;;;;;;14.93;8.48;;;;;;;;;;5072292;28;20123;-62
2021/06/09 12:41:29;;;;;;;14.85;8.75;;;;;;;;;;5057616;28;20512;-63
2021/06/09 12:43:59;;;;;;;13.18;7.85;;;;;;;;;;5072092;28;20021;-63
2021/06/09 12:46:25;;;;;;;12.68;7.80;;;;;;;;;;5063888;28;20091;-63
2021/06/09 12:48:52;;;;;;;13.68;7.60;;;;;;;;;;5067621;28;20468;-62
2021/06/09 12:51:18;;;;;;;12.23;8.40;;;;;;;;;;5066355;28;20024;-62
2021/06/09 12:53:45;;;;;;;13.50;8.88;;;;;;;;;;5066546;28;20113;-62
2021/06/09 12:56:11;;;;;;;11.80;7.90;;;;;;;;;;5069080;28;20048;-62
2021/06/09 12:58:39;;;;;;;12.60;8.00;;;;;;;;;;5065655;28;20021;-62
2021/06/09 13:01:09;;;;;;;12.18;8.20;;;;;;;;;;5059070;28;20413;-62
2021/06/09 13:03:43;;;;;;;12.73;9.00;;;;;;;;;;5065549;28;20017;-62
2021/06/09 13:06:11;;;;;;;13.50;9.13;;;;;;;;;;5065240;28;20013;-62
2021/06/09 13:08:38;;;;;;;14.27;9.00;;;;;;;;;;5065070;28;20507;-62
2021/06/09 13:11:21;;;;;;;12.48;8.50;;;;;;;;;;5061766;28;20020;-62
2021/06/09 13:13:50;;;;;;;14.00;9.15;;;;;;;;;;5063744;28;20456;-62
2021/06/09 13:16:23;;;;;;;14.70;9.15;;;;;;;;;;5070145;28;20035;-62
2021/06/09 13:18:52;;;;;;;15.18;8.60;;;;;;;;;;5061393;28;20037;-63
2021/06/09 13:21:26;;;;;;;12.20;8.40;;;;;;;;;;5069196;28;20063;-63
2021/06/09 13:23:54;;;;;;;16.55;8.70;;;;;;;;;;5067204;28;20033;-63
2021/06/09 13:26:21;;;;;;;11.05;6.70;;;;;;;;;;5061064;28;20032;-63
2021/06/09 13:28:47;;;;;;;13.43;8.75;;;;;;;;;;5070404;28;20032;-62
2021/06/09 13:31:13;;;;;;;11.25;7.93;;;;;;;;;;5066217;28;20028;-63
2021/06/09 13:33:41;;;;;;;14.85;7.80;;;;;;;;;;5071727;28;20021;-63
2021/06/09 13:36:07;;;;;;;12.85;10.00;;;;;;;;;;5057284;28;20539;-63
2021/06/09 13:38:37;;;;;;;11.77;8.05;;;;;;;;;;5063835;28;20056;-63
2021/06/09 13:41:03;;;;;;;12.25;8.93;;;;;;;;;;5065627;28;20529;-63
2021/06/09 13:43:31;;;;;;;13.35;8.50;;;;;;;;;;5061991;28;20039;-63
2021/06/09 13:46:01;;;;;;;10.93;6.80;;;;;;;;;;5069938;28;20019;-63
2021/06/09 13:48:29;;;;;;;12.63;9.13;;;;;;;;;;5064564;28;20120;-62
2021/06/09 13:51:01;;;;;;;13.70;8.52;;;;;;;;;;5059478;28;20019;-63
2021/06/09 13:53:28;;;;;;;13.95;8.65;;;;;;;;;;5060320;28;20070;-62
2021/06/09 13:55:55;;;;;;;14.07;8.45;;;;;;;;;;5065710;28;20049;-62
2021/06/09 13:58:24;;;;;;;13.60;8.30;;;;;;;;;;5070379;28;20458;-62
2021/06/09 14:00:52;;;;;;;13.13;8.30;;;;;;;;;;5066628;28;20075;-63
2021/06/09 14:03:20;;;;;;;12.60;8.75;;;;;;;;;;5060601;28;20020;-63
2021/06/09 14:05:48;;;;;;;10.82;7.68;;;;;;;;;;5057443;28;20024;-63
2021/06/09 14:08:14;;;;;;;11.00;8.20;;;;;;;;;;5067551;28;20025;-62
2021/06/09 14:10:43;;;;;;;12.93;8.38;;;;;;;;;;5065532;28;20029;-62
2021/06/09 14:13:13;;;;;;;12.68;8.50;;;;;;;;;;5065139;28;20055;-62
2021/06/09 14:15:41;;;;;;;13.38;9.18;;;;;;;;;;5071005;28;20020;-63
2021/06/09 14:18:07;;;;;;;13.55;9.00;;;;;;;;;;5065413;28;20127;-62
2021/06/09 14:20:37;;;;;;;12.27;8.45;;;;;;;;;;5064860;28;20532;-63
2021/06/09 14:23:03;;;;;;;12.77;7.63;;;;;;;;;;5062648;28;20020;-63
2021/06/09 14:25:36;;;;;;;11.98;8.15;;;;;;;;;;5056518;28;20032;-63
2021/06/09 14:28:06;;;;;;;13.98;8.48;;;;;;;;;;5061781;28;20029;-63
2021/06/09 14:30:38;;;;;;;14.02;9.65;;;;;;;;;;5068024;28;20032;-63